createdAt,value
2022-09-11T00:00:59.333Z,21.57
2022-09-11T00:03:28.092Z,21.87
2022-09-11T00:05:54.842Z,22.07
2022-09-11T00:08:22.212Z,27.97
2022-09-11T00:10:49.330Z,23.70
2022-09-11T00:13:21.745Z,27.63
2022-09-11T00:15:50.866Z,23.67
2022-09-11T00:18:21.722Z,21.87
2022-09-11T00:20:51.061Z,22.17
2022-09-11T00:23:19.749Z,25.10
2022-09-11T00:25:47.920Z,19.77
2022-09-11T00:28:19.725Z,23.87
2022-09-11T00:30:48.433Z,26.97
2022-09-11T00:33:15.737Z,24.03
2022-09-11T00:35:42.816Z,30.07
2022-09-11T00:38:17.044Z,23.17
2022-09-11T00:40:46.397Z,23.97
2022-09-11T00:43:17.618Z,23.27
2022-09-11T00:45:47.314Z,21.40
2022-09-11T00:48:20.118Z,23.23
2022-09-11T00:50:48.193Z,29.03
2022-09-11T00:53:17.850Z,27.63
2022-09-11T00:55:50.650Z,30.00
2022-09-11T00:58:24.706Z,22.07
2022-09-11T01:00:54.343Z,31.57
2022-09-11T01:03:21.259Z,23.00
2022-09-11T01:05:48.224Z,22.13
2022-09-11T01:08:14.975Z,23.00
2022-09-11T01:11:13.402Z,27.37
2022-09-11T01:13:59.101Z,28.10
2022-09-11T01:16:32.355Z,25.87
2022-09-11T01:19:05.344Z,32.80
2022-09-11T01:21:53.149Z,27.03
2022-09-11T01:24:41.047Z,27.20
2022-09-11T01:27:42.769Z,23.43
2022-09-11T01:30:11.840Z,26.53
2022-09-11T01:33:08.899Z,25.13
2022-09-11T01:36:04.053Z,24.30
2022-09-11T01:38:48.128Z,27.43
2022-09-11T01:41:20.537Z,30.10
2022-09-11T01:44:15.203Z,25.27
2022-09-11T01:46:47.707Z,26.13
2022-09-11T01:49:19.996Z,24.53
2022-09-11T01:51:49.838Z,29.33
2022-09-11T01:54:19.827Z,31.27
2022-09-11T01:56:51.395Z,29.57
2022-09-11T01:59:21.707Z,24.37
2022-09-11T02:01:53.730Z,24.07
2022-09-11T02:04:29.749Z,23.90
2022-09-11T02:07:05.114Z,27.97
2022-09-11T02:09:38.231Z,25.90
2022-09-11T02:12:09.172Z,25.90
2022-09-11T02:14:44.978Z,24.73
2022-09-11T02:17:36.565Z,26.87
2022-09-11T02:20:05.254Z,26.07
2022-09-11T02:22:31.978Z,30.70
2022-09-11T02:24:58.684Z,27.07
2022-09-11T02:27:27.484Z,25.07
2022-09-11T02:29:55.922Z,26.67
2022-09-11T02:32:22.979Z,30.30
2022-09-11T02:34:50.995Z,27.00
2022-09-11T02:37:49.119Z,30.13
2022-09-11T02:40:34.208Z,31.73
2022-09-11T02:43:23.820Z,30.93
2022-09-11T02:46:16.906Z,31.27
2022-09-11T02:48:50.703Z,31.23
2022-09-11T02:51:34.929Z,34.53
2022-09-11T02:54:13.791Z,36.83
2022-09-11T02:56:57.041Z,35.10
2022-09-11T02:59:54.378Z,35.87
2022-09-11T03:02:21.423Z,36.23
2022-09-11T03:04:48.465Z,35.70
2022-09-11T03:07:16.081Z,37.23
2022-09-11T03:09:43.246Z,38.33
2022-09-11T03:12:10.375Z,42.70
2022-09-11T03:14:38.126Z,37.20
2022-09-11T03:17:05.766Z,41.87
2022-09-11T03:19:32.862Z,44.50
2022-09-11T03:22:00.565Z,43.33
2022-09-11T03:24:27.619Z,49.03
2022-09-11T03:26:54.701Z,48.00
2022-09-11T03:29:21.726Z,46.37
2022-09-11T03:31:48.539Z,51.30
2022-09-11T03:34:15.229Z,49.57
2022-09-11T03:36:41.926Z,50.00
2022-09-11T03:39:08.955Z,55.13
2022-09-11T03:41:36.003Z,55.47
2022-09-11T03:44:02.869Z,59.13
2022-09-11T03:46:29.514Z,52.17
2022-09-11T03:48:56.638Z,54.53
2022-09-11T03:51:23.718Z,58.33
2022-09-11T03:53:50.792Z,65.07
2022-09-11T03:56:17.680Z,55.83
2022-09-11T03:58:44.871Z,61.90
2022-09-11T04:01:13.303Z,67.20
2022-09-11T04:03:41.074Z,61.83
2022-09-11T04:06:08.656Z,69.27
2022-09-11T04:08:35.387Z,70.87
2022-09-11T04:11:04.927Z,60.73
2022-09-11T04:13:33.688Z,63.73
2022-09-11T04:16:03.822Z,73.60
2022-09-11T04:18:32.381Z,75.07
2022-09-11T04:20:59.584Z,72.87
2022-09-11T04:23:26.810Z,73.97
2022-09-11T04:25:53.473Z,74.17
2022-09-11T04:28:20.617Z,72.03
2022-09-11T04:30:47.691Z,74.07
2022-09-11T04:33:14.327Z,67.53
2022-09-11T04:35:41.708Z,71.97
2022-09-11T04:38:08.469Z,63.83
2022-09-11T04:40:36.069Z,82.20
2022-09-11T04:43:03.263Z,71.73
2022-09-11T04:45:33.653Z,77.63
2022-09-11T04:48:00.978Z,84.43
2022-09-11T04:50:29.038Z,70.87
2022-09-11T04:52:56.118Z,74.50
2022-09-11T04:55:23.154Z,71.27
2022-09-11T04:57:50.199Z,70.37
2022-09-11T05:00:17.258Z,101.77
2022-09-11T05:02:44.307Z,120.73
2022-09-11T05:05:11.325Z,126.93
2022-09-11T05:07:38.579Z,103.93
2022-09-11T05:10:06.015Z,113.27
2022-09-11T05:12:32.656Z,116.23
2022-09-11T05:14:59.299Z,125.50
2022-09-11T05:17:25.936Z,114.80
2022-09-11T05:19:52.980Z,118.50
2022-09-11T05:22:19.626Z,133.40
2022-09-11T05:24:46.683Z,140.73
2022-09-11T05:27:14.112Z,153.63
2022-09-11T05:29:41.845Z,141.27
2022-09-11T05:32:08.916Z,151.43
2022-09-11T05:34:35.556Z,157.60
2022-09-11T05:37:02.558Z,137.87
2022-09-11T05:39:29.314Z,143.53
2022-09-11T05:41:55.933Z,157.47
2022-09-11T05:44:22.827Z,130.93
2022-09-11T05:46:49.457Z,142.97
2022-09-11T05:49:16.112Z,169.73
2022-09-11T05:51:42.805Z,153.47
2022-09-11T05:54:09.886Z,169.50
2022-09-11T05:56:36.695Z,159.13
2022-09-11T05:59:03.792Z,151.53
2022-09-11T06:01:31.149Z,181.97
2022-09-11T06:03:58.379Z,151.63
2022-09-11T06:06:25.264Z,169.87
2022-09-11T06:08:52.795Z,135.17
2022-09-11T06:11:20.798Z,140.30
2022-09-11T06:13:48.180Z,152.00
2022-09-11T06:16:22.869Z,151.83
2022-09-11T06:18:51.283Z,155.87
2022-09-11T06:21:20.878Z,144.27
2022-09-11T06:23:52.058Z,165.40
2022-09-11T06:26:21.358Z,166.77
2022-09-11T06:28:48.653Z,148.43
2022-09-11T06:31:18.083Z,169.37
2022-09-11T06:33:45.810Z,141.50
2022-09-11T06:36:17.551Z,156.10
2022-09-11T06:38:44.838Z,138.73
2022-09-11T06:41:14.373Z,159.80
2022-09-11T06:43:42.055Z,167.13
2022-09-11T06:46:13.012Z,145.93
2022-09-11T06:48:41.209Z,118.37
2022-09-11T06:51:11.388Z,115.87
2022-09-11T06:53:38.764Z,146.80
2022-09-11T06:56:06.873Z,122.93
2022-09-11T06:58:33.949Z,139.03
2022-09-11T07:01:03.890Z,127.83
2022-09-11T07:03:30.943Z,142.50
2022-09-11T07:05:58.010Z,116.90
2022-09-11T07:08:25.172Z,106.57
2022-09-11T07:10:51.941Z,124.83
2022-09-11T07:13:19.453Z,112.23
2022-09-11T07:15:49.406Z,120.77
2022-09-11T07:18:16.298Z,111.23
2022-09-11T07:20:43.035Z,103.83
2022-09-11T07:23:10.078Z,111.10
2022-09-11T07:25:40.672Z,118.10
2022-09-11T07:28:07.331Z,81.60
2022-09-11T07:30:35.298Z,95.80
2022-09-11T07:33:02.401Z,77.27
2022-09-11T07:35:29.458Z,80.13
2022-09-11T07:37:56.471Z,89.53
2022-09-11T07:40:23.083Z,96.07
2022-09-11T07:42:49.709Z,80.63
2022-09-11T07:45:22.057Z,90.73
2022-09-11T07:47:49.798Z,89.80
2022-09-11T07:50:18.015Z,91.67
2022-09-11T07:52:45.074Z,78.67
2022-09-11T07:55:11.707Z,68.90
2022-09-11T07:57:38.921Z,65.50
2022-09-11T08:00:07.032Z,58.70
2022-09-11T08:02:34.162Z,60.70
2022-09-11T08:05:02.215Z,52.17
2022-09-11T08:07:29.737Z,61.07
2022-09-11T08:10:23.777Z,54.30
2022-09-11T08:12:48.011Z,70.90
2022-09-11T08:15:14.716Z,60.93
2022-09-11T08:17:41.746Z,56.67
2022-09-11T08:20:09.401Z,59.20
2022-09-11T08:22:36.038Z,54.87
2022-09-11T08:25:02.701Z,46.87
2022-09-11T08:27:29.772Z,46.10
2022-09-11T08:29:56.444Z,50.20
2022-09-11T08:32:23.145Z,54.27
2022-09-11T08:34:50.216Z,54.57
2022-09-11T08:37:18.358Z,47.33
2022-09-11T08:39:44.988Z,54.00
2022-09-11T08:42:17.579Z,55.53
2022-09-11T08:44:44.595Z,52.73
2022-09-11T08:47:20.350Z,49.30
2022-09-11T08:50:06.770Z,48.97
2022-09-11T08:52:36.013Z,55.30
2022-09-11T08:55:03.351Z,55.43
2022-09-11T08:57:58.133Z,45.10
2022-09-11T09:00:33.083Z,53.53
2022-09-11T09:03:02.908Z,49.07
2022-09-11T09:05:35.436Z,43.47
2022-09-11T09:08:14.426Z,47.57
2022-09-11T09:10:50.135Z,44.10
2022-09-11T09:13:17.150Z,43.40
2022-09-11T09:15:56.037Z,38.67
2022-09-11T09:18:37.511Z,35.33
2022-09-11T09:21:11.604Z,34.10
2022-09-11T09:23:53.854Z,30.83
2022-09-11T09:26:21.062Z,36.37
2022-09-11T09:28:51.877Z,35.00
2022-09-11T09:31:21.523Z,36.13
2022-09-11T09:34:01.878Z,40.60
2022-09-11T09:36:37.627Z,34.93
2022-09-11T09:39:15.812Z,38.97
2022-09-11T09:42:05.087Z,35.53
2022-09-11T09:44:52.531Z,33.93
2022-09-11T09:47:19.270Z,32.33
2022-09-11T09:49:46.889Z,31.73
2022-09-11T09:52:26.865Z,30.90
2022-09-11T09:55:00.281Z,33.50
2022-09-11T09:57:39.808Z,36.67
2022-09-11T10:00:09.801Z,44.47
2022-09-11T10:02:45.523Z,41.73
2022-09-11T10:05:42.112Z,48.00
2022-09-11T10:08:38.043Z,51.23
2022-09-11T10:11:07.371Z,41.40
2022-09-11T10:13:38.530Z,42.03
2022-09-11T10:16:19.341Z,48.70
2022-09-11T10:18:47.112Z,43.83
2022-09-11T10:21:14.192Z,47.03
2022-09-11T10:23:50.446Z,41.85
2022-09-11T10:26:24.227Z,34.93
2022-09-11T10:28:51.418Z,36.87
2022-09-11T10:31:18.484Z,34.87
2022-09-11T10:33:56.529Z,32.85
2022-09-11T10:36:27.074Z,39.67
2022-09-11T10:38:55.988Z,42.27
2022-09-11T10:41:24.983Z,41.70
2022-09-11T10:44:01.723Z,46.38
2022-09-11T10:46:41.422Z,45.50
2022-09-11T10:49:20.442Z,44.43
2022-09-11T10:52:19.397Z,48.23
2022-09-11T10:55:07.422Z,42.03
2022-09-11T10:57:34.495Z,48.80
2022-09-11T11:00:27.759Z,42.57
2022-09-11T11:03:00.274Z,42.10
2022-09-11T11:05:35.532Z,43.10
2022-09-11T11:08:23.448Z,42.47
2022-09-11T11:11:16.258Z,43.17
2022-09-11T11:13:51.198Z,43.10
2022-09-11T11:16:39.602Z,41.93
2022-09-11T11:19:06.927Z,44.50
2022-09-11T11:22:02.852Z,44.70
2022-09-11T11:24:35.029Z,123.07
2022-09-11T11:27:22.869Z,44.20
2022-09-11T11:30:11.391Z,38.43
2022-09-11T11:32:47.034Z,37.63
2022-09-11T11:35:24.041Z,38.50
2022-09-11T11:37:59.785Z,34.13
2022-09-11T11:40:28.087Z,33.97
2022-09-11T11:42:58.509Z,33.77
2022-09-11T11:45:37.693Z,36.93
2022-09-11T11:48:15.854Z,39.93
2022-09-11T11:50:50.517Z,35.03
2022-09-11T11:53:38.899Z,33.67
2022-09-11T11:56:41.105Z,30.93
2022-09-11T11:59:34.894Z,32.47
2022-09-11T12:02:04.512Z,28.57
2022-09-11T12:04:36.850Z,26.47
2022-09-11T12:07:05.095Z,29.10
2022-09-11T12:09:33.782Z,29.00
2022-09-11T12:12:06.584Z,24.97
2022-09-11T12:14:35.275Z,25.87
2022-09-11T12:17:28.307Z,22.93
2022-09-11T12:20:10.463Z,21.55
2022-09-11T12:22:38.931Z,18.17
2022-09-11T12:25:25.957Z,21.40
2022-09-11T12:28:09.266Z,20.47
2022-09-11T12:30:59.819Z,17.00
2022-09-11T12:33:41.636Z,17.07
2022-09-11T12:36:13.174Z,16.53
2022-09-11T12:38:48.952Z,17.48
2022-09-11T12:41:30.133Z,15.30
2022-09-11T12:43:57.053Z,14.53
2022-09-11T12:46:24.412Z,13.13
2022-09-11T12:49:17.901Z,13.03
2022-09-11T12:51:45.584Z,13.23
2022-09-11T12:54:14.973Z,15.57
2022-09-11T12:56:58.701Z,13.90
2022-09-11T12:59:41.157Z,13.63
2022-09-11T13:02:29.063Z,12.90
2022-09-11T13:04:57.924Z,14.63
2022-09-11T13:07:40.814Z,12.07
2022-09-11T13:10:23.390Z,17.73
2022-09-11T13:12:53.082Z,14.80
2022-09-11T13:15:38.316Z,14.20
2022-09-11T13:18:35.486Z,13.97
2022-09-11T13:21:14.626Z,12.30
2022-09-11T13:23:43.004Z,13.50
2022-09-11T13:26:15.863Z,13.53
2022-09-11T13:28:46.896Z,14.23
2022-09-11T13:31:36.512Z,14.20
2022-09-11T13:34:07.878Z,13.17
2022-09-11T13:36:35.887Z,14.80
2022-09-11T13:39:04.271Z,13.37
2022-09-11T13:41:38.157Z,15.80
2022-09-11T13:44:11.782Z,14.07
2022-09-11T13:46:50.595Z,14.93
2022-09-11T13:49:32.564Z,14.60
2022-09-11T13:51:59.589Z,12.53
2022-09-11T13:54:38.181Z,15.50
2022-09-11T13:57:10.468Z,13.50
2022-09-11T13:59:51.992Z,11.87
2022-09-11T14:02:50.906Z,11.48
2022-09-11T14:05:21.915Z,13.53
2022-09-11T14:08:04.725Z,13.50
2022-09-11T14:10:44.057Z,11.43
2022-09-11T14:13:19.776Z,11.03
2022-09-11T14:15:53.188Z,11.43
2022-09-11T14:18:35.058Z,12.23
2022-09-11T14:21:05.570Z,10.43
2022-09-11T14:23:40.234Z,11.38
2022-09-11T14:26:16.090Z,11.75
2022-09-11T14:28:49.317Z,12.13
2022-09-11T14:31:27.812Z,12.37
2022-09-11T14:34:12.883Z,13.70
2022-09-11T14:37:01.024Z,12.65
2022-09-11T14:39:39.452Z,12.68
2022-09-11T14:42:16.509Z,17.87
2022-09-11T14:44:43.829Z,20.73
2022-09-11T14:47:17.238Z,12.50
2022-09-11T14:49:45.272Z,13.20
2022-09-11T14:52:18.068Z,12.07
2022-09-11T14:54:45.318Z,13.77
2022-09-11T14:57:20.788Z,23.63
2022-09-11T14:59:48.249Z,13.43
2022-09-11T15:02:26.191Z,10.57
2022-09-11T15:04:54.428Z,14.60
2022-09-11T15:07:23.585Z,11.25
2022-09-11T15:09:51.970Z,10.52
2022-09-11T15:12:19.237Z,13.73
2022-09-11T15:14:56.632Z,11.00
2022-09-11T15:17:25.272Z,14.70
2022-09-11T15:19:53.124Z,10.27
2022-09-11T15:22:30.062Z,11.02
2022-09-11T15:24:57.204Z,13.70
2022-09-11T15:27:25.127Z,10.90
2022-09-11T15:29:52.295Z,9.87
2022-09-11T15:32:21.107Z,10.77
2022-09-11T15:34:47.795Z,10.33
2022-09-11T15:37:16.853Z,10.40
2022-09-11T15:39:44.078Z,10.60
2022-09-11T15:42:11.681Z,10.47
2022-09-11T15:44:38.414Z,8.85
2022-09-11T15:47:06.138Z,11.83
2022-09-11T15:49:32.919Z,9.93
2022-09-11T15:52:00.343Z,8.60
2022-09-11T15:54:28.023Z,9.80
2022-09-11T15:56:55.651Z,8.68
2022-09-11T15:59:22.630Z,9.02
2022-09-11T16:01:49.831Z,8.15
2022-09-11T16:04:20.228Z,8.80
2022-09-11T16:06:48.766Z,10.38
2022-09-11T16:09:15.880Z,9.60
2022-09-11T16:11:43.938Z,9.93
2022-09-11T16:14:21.081Z,9.80
2022-09-11T16:16:48.203Z,10.30
2022-09-11T16:19:20.438Z,11.47
2022-09-11T16:21:48.018Z,10.33
2022-09-11T16:24:15.766Z,10.90
2022-09-11T16:26:44.355Z,10.80
2022-09-11T16:29:13.064Z,9.20
2022-09-11T16:31:40.330Z,9.37
2022-09-11T16:34:07.648Z,9.60
2022-09-11T16:36:42.548Z,7.80
2022-09-11T16:39:11.055Z,9.83
2022-09-11T16:41:38.301Z,9.40
2022-09-11T16:44:06.613Z,9.87
2022-09-11T16:46:34.373Z,10.73
2022-09-11T16:49:02.139Z,12.20
2022-09-11T16:51:29.622Z,14.27
2022-09-11T16:53:56.909Z,9.90
2022-09-11T16:56:24.817Z,11.67
2022-09-11T16:58:51.894Z,12.55
2022-09-11T17:01:21.252Z,12.83
2022-09-11T17:03:50.277Z,13.03
2022-09-11T17:06:19.542Z,14.33
2022-09-11T17:08:46.684Z,11.10
2022-09-11T17:11:20.800Z,9.70
2022-09-11T17:13:48.843Z,11.00
2022-09-11T17:16:18.865Z,11.83
2022-09-11T17:18:51.290Z,10.77
2022-09-11T17:21:18.103Z,12.07
2022-09-11T17:23:45.229Z,13.00
2022-09-11T17:26:13.983Z,11.40
2022-09-11T17:28:41.817Z,12.50
2022-09-11T17:31:10.491Z,12.27
2022-09-11T17:33:40.738Z,11.43
2022-09-11T17:36:09.938Z,12.43
2022-09-11T17:38:37.674Z,13.60
2022-09-11T17:41:06.634Z,11.20
2022-09-11T17:43:34.195Z,10.10
2022-09-11T17:46:15.271Z,14.13
2022-09-11T17:48:43.091Z,12.03
2022-09-11T17:51:24.989Z,12.53
2022-09-11T17:53:57.238Z,10.77
2022-09-11T17:56:27.195Z,9.57
2022-09-11T17:58:55.831Z,12.23
2022-09-11T18:01:24.371Z,14.30
2022-09-11T18:03:58.322Z,13.07
2022-09-11T18:06:36.764Z,10.87
2022-09-11T18:09:13.729Z,12.30
2022-09-11T18:11:43.004Z,12.20
2022-09-11T18:14:10.478Z,13.87
2022-09-11T18:16:38.050Z,13.40
2022-09-11T18:19:05.486Z,14.30
2022-09-11T18:21:34.126Z,14.80
2022-09-11T18:24:09.859Z,18.60
2022-09-11T18:26:40.079Z,17.70
2022-09-11T18:29:10.836Z,17.63
2022-09-11T18:31:40.740Z,15.63
2022-09-11T18:34:07.877Z,16.47
2022-09-11T18:36:34.542Z,18.57
2022-09-11T18:39:02.857Z,14.93
2022-09-11T18:41:32.022Z,17.17
2022-09-11T18:44:00.589Z,17.70
2022-09-11T18:46:27.873Z,16.97
2022-09-11T18:48:55.876Z,18.40
2022-09-11T18:51:23.205Z,16.07
2022-09-11T18:53:53.659Z,17.30
2022-09-11T18:56:22.760Z,19.33
2022-09-11T18:58:52.135Z,19.80
2022-09-11T19:01:21.132Z,19.77
2022-09-11T19:03:52.868Z,19.90
2022-09-11T19:06:22.108Z,18.13
2022-09-11T19:08:49.223Z,18.97
2022-09-11T19:11:18.966Z,19.83
2022-09-11T19:13:46.274Z,19.93
2022-09-11T19:16:14.553Z,17.27
2022-09-11T19:18:41.412Z,17.37
2022-09-11T19:21:26.359Z,19.60
2022-09-11T19:23:59.556Z,22.80
2022-09-11T19:26:33.049Z,22.90
2022-09-11T19:29:00.664Z,20.77
2022-09-11T19:31:29.626Z,21.00
2022-09-11T19:33:57.923Z,21.80
2022-09-11T19:36:27.200Z,21.33
2022-09-11T19:38:55.980Z,22.30
2022-09-11T19:41:25.785Z,21.70
2022-09-11T19:43:54.073Z,20.27
2022-09-11T19:46:26.561Z,21.10
2022-09-11T19:48:56.795Z,21.27
2022-09-11T19:51:32.123Z,21.07
2022-09-11T19:54:00.631Z,25.53
2022-09-11T19:56:28.638Z,22.13
2022-09-11T19:58:55.837Z,22.03
2022-09-11T20:01:24.282Z,23.07
2022-09-11T20:03:55.823Z,20.50
2022-09-11T20:06:25.628Z,21.77
2022-09-11T20:09:07.975Z,22.07
2022-09-11T20:11:40.708Z,25.23
2022-09-11T20:14:07.799Z,22.97
2022-09-11T20:16:35.118Z,24.23
2022-09-11T20:19:06.510Z,23.57
2022-09-11T20:21:35.383Z,26.23
2022-09-11T20:24:03.013Z,24.57
2022-09-11T20:26:30.883Z,22.77
2022-09-11T20:29:00.662Z,26.63
2022-09-11T20:31:31.447Z,22.70
2022-09-11T20:34:00.525Z,26.57
2022-09-11T20:36:29.853Z,27.93
2022-09-11T20:38:58.319Z,26.20
2022-09-11T20:41:29.488Z,27.37
2022-09-11T20:44:01.921Z,26.87
2022-09-11T20:46:29.066Z,25.50
2022-09-11T20:48:56.215Z,30.43
2022-09-11T20:51:23.349Z,30.10
2022-09-11T20:53:50.876Z,29.70
2022-09-11T20:56:20.431Z,34.47
2022-09-11T20:58:47.772Z,28.90
2022-09-11T21:01:17.506Z,32.50
2022-09-11T21:03:47.220Z,34.73
2022-09-11T21:06:14.614Z,34.83
2022-09-11T21:08:42.199Z,33.73
2022-09-11T21:11:09.765Z,30.47
2022-09-11T21:13:41.347Z,33.73
2022-09-11T21:16:12.274Z,35.67
2022-09-11T21:18:40.576Z,37.80
2022-09-11T21:21:07.844Z,35.90
2022-09-11T21:23:34.624Z,35.50
2022-09-11T21:26:01.949Z,42.30
2022-09-11T21:28:29.298Z,33.00
2022-09-11T21:30:58.509Z,36.00
2022-09-11T21:33:26.448Z,36.23
2022-09-11T21:35:54.625Z,35.23
2022-09-11T21:38:24.446Z,33.93
2022-09-11T21:40:52.093Z,36.47
2022-09-11T21:43:19.208Z,38.13
2022-09-11T21:45:46.272Z,34.90
2022-09-11T21:48:13.351Z,39.03
2022-09-11T21:50:40.348Z,36.40
2022-09-11T21:53:07.622Z,38.60
2022-09-11T21:55:42.415Z,37.03
2022-09-11T21:58:15.717Z,37.43
2022-09-11T22:00:43.478Z,41.27
2022-09-11T22:03:12.536Z,38.37
2022-09-11T22:05:42.987Z,33.03
2022-09-11T22:08:11.162Z,39.17
2022-09-11T22:10:48.664Z,38.17
2022-09-11T22:13:19.278Z,36.33
2022-09-11T22:15:50.211Z,37.57
2022-09-11T22:18:18.202Z,40.03
2022-09-11T22:20:45.514Z,39.27
2022-09-11T22:23:21.897Z,35.77
2022-09-11T22:25:56.670Z,35.03
2022-09-11T22:28:23.300Z,35.10
2022-09-11T22:30:50.494Z,36.97
2022-09-11T22:33:17.116Z,34.37
2022-09-11T22:35:46.651Z,35.87
2022-09-11T22:38:16.437Z,37.50
2022-09-11T22:40:43.111Z,35.13
2022-09-11T22:43:10.096Z,35.50
2022-09-11T22:45:37.328Z,37.07
2022-09-11T22:48:04.810Z,32.73
2022-09-11T22:50:32.520Z,38.87
2022-09-11T22:52:59.162Z,37.77
2022-09-11T22:55:25.835Z,39.10
2022-09-11T22:57:52.485Z,39.27
2022-09-11T23:00:19.708Z,35.93
2022-09-11T23:02:46.813Z,36.53
2022-09-11T23:05:32.150Z,35.17
2022-09-11T23:07:59.202Z,36.83
2022-09-11T23:10:25.913Z,37.20
2022-09-11T23:12:53.453Z,39.33
2022-09-11T23:15:20.670Z,34.10
2022-09-11T23:17:47.763Z,38.87
2022-09-11T23:20:14.928Z,36.50
2022-09-11T23:22:42.077Z,34.60
2022-09-11T23:25:09.312Z,41.43
2022-09-11T23:27:36.415Z,34.30
2022-09-11T23:30:03.663Z,38.17
2022-09-11T23:32:31.024Z,34.70
2022-09-11T23:34:58.184Z,31.00
2022-09-11T23:37:25.441Z,41.50
2022-09-11T23:39:52.734Z,32.93
2022-09-11T23:42:19.867Z,39.13
2022-09-11T23:44:47.109Z,38.40
2022-09-11T23:47:14.243Z,37.83
2022-09-11T23:49:43.655Z,36.47
2022-09-11T23:52:10.791Z,35.23
2022-09-11T23:54:37.955Z,35.40
2022-09-11T23:57:05.648Z,39.23
2022-09-11T23:59:35.936Z,41.73
